Time;durP1;ratioP1;P1;durP2;ratioP2;P2;SDS_P1;SDS_P2;PMS_P1;PMS_P2;Temp;Humidity;BMP_temperature;BMP_pressure;BME280_temperature;BME280_humidity;BME280_pressure;Samples;Min_cycle;Max_cycle;Signal;HPM_P1;HPM_P2
2022/10/03 00:00:36;;;;;;;15.52;4.90;;;10.60;99.90;;;;;;4956458;28;20535;-61
2022/10/03 00:03:11;;;;;;;13.80;4.72;;;10.20;99.90;;;;;;4954297;28;20805;-61
2022/10/03 00:05:57;;;;;;;13.52;4.40;;;10.30;99.90;;;;;;4947941;28;20053;-61
2022/10/03 00:08:56;;;;;;;14.82;4.63;;;10.30;99.90;;;;;;4955186;28;20046;-60
2022/10/03 00:11:43;;;;;;;14.38;4.45;;;10.20;99.90;;;;;;4946359;28;20095;-61
2022/10/03 00:14:33;;;;;;;15.68;4.57;;;10.30;99.90;;;;;;4958199;28;20030;-61
2022/10/03 00:17:26;;;;;;;13.77;4.57;;;10.30;99.90;;;;;;4948167;28;20043;-61
2022/10/03 00:20:01;;;;;;;16.63;4.57;;;10.30;99.90;;;;;;4956563;28;20676;-61
2022/10/03 00:22:36;;;;;;;11.65;4.53;;;10.30;99.90;;;;;;4959630;28;20027;-61
2022/10/03 00:25:16;;;;;;;14.48;4.57;;;10.30;99.90;;;;;;4953601;28;20043;-61
2022/10/03 00:28:11;;;;;;;14.98;4.18;;;10.40;99.90;;;;;;4947558;28;20614;-61
2022/10/03 00:30:59;;;;;;;11.50;4.70;;;10.30;99.90;;;;;;4952480;28;20031;-61
2022/10/03 00:33:54;;;;;;;16.25;4.63;;;10.50;99.90;;;;;;4921777;28;20054;-61
2022/10/03 00:36:37;;;;;;;17.02;4.60;;;10.50;99.90;;;;;;4950833;28;20035;-61
2022/10/03 00:39:19;;;;;;;;;;;10.50;99.90;;;;;;4950503;28;20506;-61
2022/10/03 00:42:12;;;;;;;13.68;4.82;;;10.40;99.90;;;;;;4951430;28;19910;-61
2022/10/03 00:45:00;;;;;;;11.13;3.92;;;10.40;99.90;;;;;;4959362;28;20402;-61
2022/10/03 00:47:51;;;;;;;15.68;4.05;;;10.30;99.90;;;;;;4953722;28;20035;-61
2022/10/03 00:50:46;;;;;;;16.13;4.30;;;10.20;99.90;;;;;;4946022;28;20675;-61
2022/10/03 00:53:31;;;;;;;9.95;4.00;;;10.20;99.90;;;;;;4954382;28;20122;-61
2022/10/03 00:56:45;;;;;;;15.95;4.13;;;10.10;99.90;;;;;;4957774;28;20219;-61
2022/10/03 00:59:47;;;;;;;14.75;4.65;;;10.20;99.90;;;;;;4873948;29;20206;-61
2022/10/03 01:02:43;;;;;;;19.70;4.53;;;10.40;99.90;;;;;;4953477;28;20485;-61
2022/10/03 01:05:33;;;;;;;15.77;4.38;;;10.30;99.90;;;;;;4930287;28;20516;-61
2022/10/03 01:08:55;;;;;;;13.85;4.07;;;10.30;99.90;;;;;;4952314;28;20078;-61
2022/10/03 01:11:23;;;;;;;12.15;3.88;;;10.20;99.90;;;;;;4931072;28;20550;-62
2022/10/03 01:13:58;;;;;;;16.40;4.10;;;10.10;99.90;;;;;;4953533;28;20429;-61
2022/10/03 01:16:40;;;;;;;14.80;4.38;;;10.10;99.90;;;;;;4957561;28;20043;-61
2022/10/03 01:19:30;;;;;;;12.70;4.15;;;10.10;99.90;;;;;;4957087;28;20220;-61
2022/10/03 01:22:03;;;;;;;17.00;4.40;;;9.90;99.90;;;;;;4947487;28;20030;-62
2022/10/03 01:24:58;;;;;;;13.68;4.32;;;9.90;99.90;;;;;;4948910;28;20040;-61
2022/10/03 01:30:21;;;;;;;12.85;4.20;;;10.00;99.90;;;;;;4953977;28;20051;-61
2022/10/03 01:30:21;;;;;;;15.77;3.95;;;10.00;99.90;;;;;;4954498;28;20039;-61
2022/10/03 01:33:10;;;;;;;12.60;4.45;;;9.90;99.90;;;;;;4947464;28;20358;-61
2022/10/03 01:36:16;;;;;;;9.38;3.78;;;9.90;99.90;;;;;;4952471;28;20031;-61
2022/10/03 01:38:48;;;;;;;11.10;3.70;;;9.80;99.90;;;;;;4903531;29;20041;-61
2022/10/03 01:41:36;;;;;;;16.07;4.80;;;9.80;99.90;;;;;;4943377;28;20030;-62
2022/10/03 01:44:08;;;;;;;9.73;3.83;;;9.90;99.90;;;;;;4944531;28;20306;-61
2022/10/03 01:47:04;;;;;;;12.95;4.63;;;9.90;99.90;;;;;;4953764;28;20484;-61
2022/10/03 01:49:40;;;;;;;11.18;4.32;;;9.80;99.90;;;;;;4956482;28;20147;-61
2022/10/03 01:52:10;;;;;;;12.95;4.00;;;9.90;99.90;;;;;;4949243;28;20652;-61
2022/10/03 01:54:38;;;;;;;14.07;4.85;;;9.90;99.90;;;;;;4948242;28;20035;-61
2022/10/03 01:57:34;;;;;;;12.82;4.85;;;10.00;99.90;;;;;;4952330;28;20549;-62
2022/10/03 02:00:20;;;;;;;14.35;4.50;;;9.90;99.90;;;;;;4947194;28;20082;-61
2022/10/03 02:03:08;;;;;;;17.42;4.30;;;9.90;99.90;;;;;;4952079;28;20815;-61
2022/10/03 02:05:52;;;;;;;11.52;4.85;;;9.80;99.90;;;;;;4947658;28;20551;-62
2022/10/03 02:08:48;;;;;;;11.35;4.53;;;9.80;99.90;;;;;;4957622;28;20035;-61
2022/10/03 02:11:39;;;;;;;12.07;4.28;;;9.80;99.90;;;;;;4945920;28;20023;-61
2022/10/03 02:14:22;;;;;;;11.90;4.63;;;9.70;99.90;;;;;;4953591;28;20593;-61
2022/10/03 02:17:21;;;;;;;10.67;4.70;;;9.80;99.90;;;;;;4947082;28;20039;-62
2022/10/03 02:19:56;;;;;;;16.98;4.90;;;9.80;99.90;;;;;;4953301;28;20271;-62
2022/10/03 02:22:31;;;;;;;17.42;5.22;;;9.80;99.90;;;;;;4950443;28;20061;-61
2022/10/03 02:25:11;;;;;;;18.52;4.97;;;9.70;99.90;;;;;;4957367;28;20393;-62
2022/10/03 02:28:05;;;;;;;13.82;4.53;;;9.60;99.90;;;;;;4950811;28;20050;-62
2022/10/03 02:30:56;;;;;;;14.43;5.25;;;9.60;99.90;;;;;;4956588;28;20035;-61
2022/10/03 02:33:52;;;;;;;8.93;4.28;;;9.60;99.90;;;;;;4955372;28;20554;-61
2022/10/03 02:36:52;;;;;;;14.27;4.90;;;9.50;99.90;;;;;;4956586;28;20060;-61
2022/10/03 02:39:21;;;;;;;14.13;5.13;;;9.60;99.90;;;;;;4950983;28;20121;-61
2022/10/03 02:42:11;;;;;;;18.48;4.90;;;9.50;99.90;;;;;;4961475;28;20075;-62
2022/10/03 02:45:24;;;;;;;11.75;4.60;;;9.50;99.90;;;;;;4954028;28;20450;-61
2022/10/03 02:48:18;;;;;;;11.80;4.60;;;9.50;99.90;;;;;;4927520;28;20977;-61
2022/10/03 02:51:03;;;;;;;8.82;4.63;;;9.50;99.90;;;;;;4951578;28;20046;-61
2022/10/03 02:54:02;;;;;;;14.38;5.00;;;9.50;99.90;;;;;;4955153;28;20165;-61
2022/10/03 02:56:47;;;;;;;12.48;4.82;;;9.50;99.90;;;;;;4955877;28;20515;-62
2022/10/03 02:59:43;;;;;;;10.55;4.60;;;9.50;99.90;;;;;;4953791;28;20635;-61
2022/10/03 03:02:34;;;;;;;14.13;5.13;;;9.40;99.90;;;;;;4951635;28;20027;-61
2022/10/03 03:05:00;;;;;;;11.45;5.03;;;9.40;99.90;;;;;;4955798;28;20719;-62
2022/10/03 03:07:37;;;;;;;14.15;5.15;;;9.30;99.90;;;;;;4957629;28;20090;-61
2022/10/03 03:10:25;;;;;;;14.02;4.68;;;9.40;99.90;;;;;;4957269;28;20050;-62
2022/10/03 03:13:31;;;;;;;13.73;5.53;;;9.40;99.90;;;;;;4952689;28;20043;-61
2022/10/03 03:16:23;;;;;;;15.85;5.20;;;9.40;99.90;;;;;;4958477;28;20475;-61
2022/10/03 03:19:01;;;;;;;14.05;5.43;;;9.40;99.90;;;;;;4952823;28;20407;-61
2022/10/03 03:21:52;;;;;;;15.05;5.50;;;9.40;99.90;;;;;;4951997;28;20693;-61
2022/10/03 03:24:55;;;;;;;13.80;4.93;;;9.40;99.90;;;;;;4945581;28;20647;-61
2022/10/03 03:27:55;;;;;;;9.07;4.80;;;9.40;99.90;;;;;;4955050;28;20035;-62
2022/10/03 03:30:35;;;;;;;12.13;5.25;;;9.40;99.90;;;;;;4955849;28;20058;-61
2022/10/03 03:33:22;;;;;;;10.85;4.75;;;9.40;99.90;;;;;;4949004;28;20049;-62
2022/10/03 03:35:59;;;;;;;13.65;5.38;;;9.40;99.90;;;;;;4953529;28;20680;-61
2022/10/03 03:38:31;;;;;;;14.13;5.90;;;9.40;99.90;;;;;;4955444;28;20035;-61
2022/10/03 03:41:08;;;;;;;12.73;5.47;;;9.40;99.90;;;;;;4952046;28;20053;-61
2022/10/03 03:44:33;;;;;;;10.82;5.13;;;9.40;99.90;;;;;;4954980;28;20019;-61
2022/10/03 03:47:06;;;;;;;13.65;5.53;;;9.40;99.90;;;;;;4938342;28;20126;-61
2022/10/03 03:49:56;;;;;;;13.75;5.53;;;9.40;99.90;;;;;;4949655;28;20043;-61
2022/10/03 03:52:56;;;;;;;13.10;5.93;;;9.50;99.90;;;;;;4957109;28;20543;-61
2022/10/03 03:55:39;;;;;;;11.60;5.30;;;9.40;99.90;;;;;;4947977;28;20108;-61
2022/10/03 03:58:17;;;;;;;14.93;6.40;;;9.40;99.90;;;;;;4957699;28;20466;-61
2022/10/03 04:01:15;;;;;;;18.48;6.32;;;9.40;99.90;;;;;;4944587;28;20517;-61
2022/10/03 04:03:53;;;;;;;12.05;5.82;;;9.50;99.90;;;;;;4957734;28;20549;-61
2022/10/03 04:06:31;;;;;;;15.65;6.55;;;9.50;99.90;;;;;;4955118;28;20045;-61
2022/10/03 04:09:21;;;;;;;15.20;6.45;;;9.50;99.90;;;;;;4958331;28;20043;-61
2022/10/03 04:12:08;;;;;;;12.93;6.55;;;9.50;99.90;;;;;;4948566;28;20478;-61
2022/10/03 04:15:02;;;;;;;15.80;6.63;;;9.50;99.90;;;;;;4966661;28;20043;-62
2022/10/03 04:21:18;;;;;;;16.77;7.07;;;9.40;99.90;;;;;;4948396;28;20120;-61
2022/10/03 04:23:49;;;;;;;15.10;6.78;;;9.50;99.90;;;;;;4953823;28;20518;-61
2022/10/03 04:26:50;;;;;;;13.57;6.80;;;9.50;99.90;;;;;;4953463;28;20095;-61
2022/10/03 04:29:39;;;;;;;13.57;6.15;;;9.50;99.90;;;;;;4955233;28;20053;-61
2022/10/03 04:32:19;;;;;;;15.52;6.90;;;9.50;99.90;;;;;;4951334;28;20031;-61
2022/10/03 04:34:54;;;;;;;13.73;6.70;;;9.50;99.90;;;;;;4957770;28;20053;-61
2022/10/03 04:37:23;;;;;;;16.90;7.00;;;9.50;99.90;;;;;;4954123;28;20506;-61
2022/10/03 04:40:26;;;;;;;13.07;6.78;;;9.40;99.90;;;;;;4956773;28;20596;-61
2022/10/03 04:43:03;;;;;;;15.68;6.43;;;9.40;99.90;;;;;;4948097;28;20114;-62
2022/10/03 04:45:44;;;;;;;17.92;6.10;;;9.40;99.90;;;;;;4953106;28;20043;-62
2022/10/03 04:48:20;;;;;;;14.93;6.70;;;9.40;99.90;;;;;;4951758;28;20019;-61
2022/10/03 04:50:56;;;;;;;15.88;6.28;;;9.30;99.90;;;;;;4952066;28;20115;-61
2022/10/03 04:53:44;;;;;;;15.65;6.22;;;9.40;99.90;;;;;;4956061;28;20566;-62
2022/10/03 04:56:42;;;;;;;15.13;6.40;;;9.30;99.90;;;;;;4950329;28;20515;-61
2022/10/03 04:59:44;;;;;;;18.08;6.95;;;9.30;99.90;;;;;;4956623;28;20035;-61
2022/10/03 05:02:27;;;;;;;15.50;6.85;;;9.30;99.90;;;;;;4952397;28;20471;-61
2022/10/03 05:04:53;;;;;;;14.90;6.13;;;9.40;99.90;;;;;;4948957;28;20098;-61
2022/10/03 05:07:40;;;;;;;17.70;6.40;;;9.40;99.90;;;;;;4952117;28;20153;-62
2022/10/03 05:10:49;;;;;;;16.67;6.55;;;9.40;99.90;;;;;;4954717;28;20427;-61
2022/10/03 05:13:40;;;;;;;14.07;6.15;;;9.40;99.90;;;;;;4923682;28;20121;-61
2022/10/03 05:16:41;;;;;;;20.88;7.40;;;9.50;99.90;;;;;;4952400;28;20487;-61
2022/10/03 05:19:25;;;;;;;12.48;6.85;;;9.50;99.90;;;;;;4946938;28;20427;-61
2022/10/03 05:21:54;;;;;;;;;;;9.50;99.90;;;;;;4957009;28;20038;-61
2022/10/03 05:24:39;;;;;;;18.80;7.18;;;9.60;99.90;;;;;;4952780;28;20378;-62
2022/10/03 05:27:22;;;;;;;12.80;7.28;;;9.60;99.90;;;;;;4951110;28;20664;-61
2022/10/03 05:30:38;;;;;;;17.23;7.55;;;9.60;99.90;;;;;;4943187;28;20043;-62
2022/10/03 05:33:19;;;;;;;18.40;8.20;;;9.70;99.90;;;;;;4924579;28;20043;-61
2022/10/03 05:36:07;;;;;;;17.88;7.55;;;9.60;99.90;;;;;;4955787;28;20057;-61
2022/10/03 05:38:57;;;;;;;16.20;7.20;;;9.60;99.90;;;;;;4951376;28;20032;-61
2022/10/03 05:41:31;;;;;;;20.20;8.48;;;9.80;99.90;;;;;;4942260;28;20035;-61
2022/10/03 05:44:16;;;;;;;17.90;7.72;;;9.80;99.90;;;;;;4955921;28;20130;-61
2022/10/03 05:46:50;;;;;;;14.57;7.90;;;9.80;99.90;;;;;;4948727;28;20587;-61
2022/10/03 05:50:03;;;;;;;16.83;7.60;;;9.80;99.90;;;;;;4954695;28;20166;-61
2022/10/03 05:52:45;;;;;;;17.33;7.70;;;9.90;99.90;;;;;;4944975;28;20403;-62
2022/10/03 05:55:27;;;;;;;16.98;7.68;;;9.80;99.90;;;;;;4957400;28;20114;-61
2022/10/03 05:58:04;;;;;;;16.58;8.30;;;9.80;99.90;;;;;;4954128;28;20078;-61
2022/10/03 06:00:56;;;;;;;13.13;7.68;;;9.70;99.90;;;;;;4953993;28;20057;-61
2022/10/03 06:03:55;;;;;;;13.65;7.40;;;9.70;99.90;;;;;;4953667;28;20042;-61
2022/10/03 06:07:13;;;;;;;17.67;7.10;;;9.60;99.90;;;;;;4958261;28;20035;-61
2022/10/03 06:09:46;;;;;;;17.80;7.95;;;9.60;99.90;;;;;;4936732;28;20141;-61
2022/10/03 06:12:39;;;;;;;19.60;7.25;;;9.70;99.90;;;;;;4954859;28;20486;-61
2022/10/03 06:15:23;;;;;;;15.57;7.50;;;9.60;99.90;;;;;;4948434;28;20034;-61
2022/10/03 06:18:16;;;;;;;16.30;7.25;;;9.60;99.90;;;;;;4958929;28;20054;-61
2022/10/03 06:20:41;;;;;;;32.72;11.27;;;9.50;99.90;;;;;;4961156;28;20182;-60
2022/10/03 06:23:28;;;;;;;20.77;8.60;;;9.50;99.90;;;;;;4953110;28;20130;-61
2022/10/03 06:26:18;;;;;;;12.20;7.00;;;9.60;99.90;;;;;;4951656;28;20042;-61
2022/10/03 06:29:16;;;;;;;13.45;7.35;;;9.50;99.90;;;;;;4954940;28;20826;-61
2022/10/03 06:32:15;;;;;;;13.73;7.13;;;9.60;99.90;;;;;;4954229;28;20093;-61
2022/10/03 06:34:59;;;;;;;20.35;7.88;;;9.50;99.90;;;;;;4960855;28;20038;-61
2022/10/03 06:37:50;;;;;;;16.63;7.47;;;9.60;99.90;;;;;;4950474;28;20106;-61
2022/10/03 06:40:47;;;;;;;20.52;8.75;;;9.70;99.90;;;;;;4958439;28;20125;-61
2022/10/03 06:43:44;;;;;;;16.65;8.77;;;9.70;99.90;;;;;;4956225;28;20134;-61
2022/10/03 06:47:01;;;;;;;19.13;8.43;;;9.80;99.90;;;;;;4957367;28;20038;-61
2022/10/03 06:49:31;;;;;;;17.20;8.95;;;9.90;99.90;;;;;;4954919;28;20046;-60
2022/10/03 06:52:26;;;;;;;21.35;9.85;;;10.00;99.90;;;;;;4956349;28;20133;-59
2022/10/03 06:55:19;;;;;;;21.40;9.73;;;10.20;99.90;;;;;;4952784;28;20050;-60
2022/10/03 06:58:22;;;;;;;21.27;10.27;;;10.30;99.90;;;;;;4952949;28;20042;-61
2022/10/03 07:01:11;;;;;;;24.75;10.20;;;10.60;99.90;;;;;;4948825;28;20070;-60
2022/10/03 07:03:59;;;;;;;20.70;10.57;;;10.60;99.90;;;;;;4958325;28;20043;-60
2022/10/03 07:06:34;;;;;;;29.40;12.07;;;10.70;99.90;;;;;;4957869;28;20050;-60
2022/10/03 07:09:02;;;;;;;21.05;10.93;;;10.80;99.90;;;;;;4955402;28;20126;-60
2022/10/03 07:11:55;;;;;;;22.90;11.38;;;10.80;99.90;;;;;;4952276;28;20389;-60
2022/10/03 07:14:39;;;;;;;23.63;11.57;;;11.00;99.90;;;;;;4956266;28;20099;-60
2022/10/03 07:17:17;;;;;;;;;;;11.10;99.90;;;;;;4958040;28;20644;-59
2022/10/03 07:19:57;;;;;;;19.17;10.38;;;11.20;99.90;;;;;;4954925;28;20000;-60
2022/10/03 07:22:41;;;;;;;22.67;11.43;;;11.20;99.90;;;;;;4953667;28;20208;-60
2022/10/03 07:25:38;;;;;;;27.80;11.98;;;11.20;99.90;;;;;;4953030;28;20292;-60
2022/10/03 07:28:04;;;;;;;27.30;12.63;;;11.40;99.90;;;;;;4956307;28;20035;-60
2022/10/03 07:30:36;;;;;;;25.48;11.88;;;11.60;99.90;;;;;;4956843;28;20105;-60
2022/10/03 07:33:22;;;;;;;22.98;12.10;;;11.60;99.90;;;;;;4954724;28;20118;-60
2022/10/03 07:39:09;;;;;;;24.38;12.32;;;11.60;99.90;;;;;;4958982;28;20038;-60
2022/10/03 07:41:59;;;;;;;26.13;12.23;;;11.60;99.90;;;;;;4951924;28;20526;-60
2022/10/03 07:44:56;;;;;;;29.17;11.93;;;11.60;99.90;;;;;;4958268;28;20446;-60
2022/10/03 07:47:53;;;;;;;23.35;11.38;;;11.60;99.90;;;;;;4951442;28;20482;-60
2022/10/03 07:50:38;;;;;;;21.15;11.77;;;11.60;99.90;;;;;;4951322;28;20038;-60
2022/10/03 07:53:14;;;;;;;21.67;11.60;;;11.60;99.90;;;;;;4958985;28;20125;-60
2022/10/03 07:56:01;;;;;;;25.38;12.32;;;11.80;99.90;;;;;;4954250;28;20487;-61
2022/10/03 07:58:34;;;;;;;27.10;11.45;;;11.70;99.90;;;;;;4952049;28;20530;-60
2022/10/03 08:01:27;;;;;;;22.52;11.68;;;11.70;99.90;;;;;;4956338;28;20447;-60
2022/10/03 08:04:16;;;;;;;30.25;12.63;;;11.70;99.90;;;;;;4952192;28;20345;-60
2022/10/03 08:07:09;;;;;;;23.27;12.68;;;11.80;99.90;;;;;;4951447;28;20036;-60
2022/10/03 08:09:56;;;;;;;24.95;13.13;;;12.10;99.90;;;;;;4943811;28;20038;-60
2022/10/03 08:12:53;;;;;;;25.67;12.98;;;12.10;99.90;;;;;;4954123;28;20149;-60
2022/10/03 08:15:54;;;;;;;26.23;12.52;;;12.20;99.90;;;;;;4956060;28;20037;-60
2022/10/03 08:18:47;;;;;;;22.48;11.77;;;12.40;99.90;;;;;;4955859;28;20046;-60
2022/10/03 08:21:28;;;;;;;36.30;12.68;;;12.40;99.90;;;;;;4948602;28;20125;-60
2022/10/03 08:24:16;;;;;;;25.33;11.70;;;12.40;99.90;;;;;;4944402;28;20098;-59
2022/10/03 08:26:59;;;;;;;25.33;11.23;;;12.60;99.90;;;;;;4954399;28;20069;-60
2022/10/03 08:29:52;;;;;;;26.02;11.93;;;12.50;99.90;;;;;;4951164;28;20043;-60
2022/10/03 08:32:47;;;;;;;19.05;10.35;;;12.60;99.90;;;;;;4956635;28;20047;-59
2022/10/03 08:35:29;;;;;;;28.38;10.80;;;12.60;99.90;;;;;;4948483;28;20126;-59
2022/10/03 08:38:32;;;;;;;26.33;10.55;;;12.60;99.90;;;;;;4954096;28;20679;-61
2022/10/03 08:41:24;;;;;;;21.02;10.40;;;12.70;99.90;;;;;;4956032;28;20043;-60
2022/10/03 08:44:05;;;;;;;20.83;9.98;;;12.80;99.90;;;;;;4956586;28;20175;-60
2022/10/03 08:47:04;;;;;;;18.83;9.32;;;13.00;99.90;;;;;;4961334;28;21091;-60
2022/10/03 08:49:53;;;;;;;21.15;10.68;;;12.90;99.90;;;;;;4955139;28;20479;-60
2022/10/03 08:52:33;;;;;;;18.88;9.75;;;13.10;99.90;;;;;;4946415;28;20042;-60
2022/10/03 08:55:17;;;;;;;18.08;9.23;;;13.20;99.90;;;;;;4947244;28;20042;-60
2022/10/03 08:58:16;;;;;;;18.27;8.35;;;13.20;99.90;;;;;;4955635;28;20456;-60
2022/10/03 09:01:14;;;;;;;25.02;9.52;;;13.20;99.90;;;;;;4954645;28;20042;-60
2022/10/03 09:03:52;;;;;;;20.63;9.27;;;13.40;99.90;;;;;;4954595;28;20038;-59
2022/10/03 09:06:43;;;;;;;20.27;7.82;;;13.50;99.90;;;;;;4947180;28;20045;-60
2022/10/03 09:09:29;;;;;;;18.15;7.07;;;13.40;99.90;;;;;;4955194;28;20030;-60
2022/10/03 09:12:41;;;;;;;20.45;7.47;;;13.40;99.90;;;;;;4957534;28;20085;-59
2022/10/03 09:15:38;;;;;;;17.08;6.82;;;13.60;99.90;;;;;;4954123;28;21487;-60
2022/10/03 09:18:32;;;;;;;16.73;7.40;;;13.60;99.90;;;;;;4948844;28;20038;-59
2022/10/03 09:21:28;;;;;;;16.02;7.47;;;13.70;99.90;;;;;;4952367;28;20122;-60
2022/10/03 09:24:31;;;;;;;13.93;6.43;;;13.70;99.90;;;;;;4953820;28;20045;-60
2022/10/03 09:27:13;;;;;;;14.80;5.88;;;13.70;99.90;;;;;;4955223;28;20379;-60
2022/10/03 09:30:07;;;;;;;17.75;6.40;;;13.70;99.90;;;;;;4951467;28;20086;-60
2022/10/03 09:32:53;;;;;;;;;;;13.90;99.90;;;;;;4955946;28;20035;-61
2022/10/03 09:35:40;;;;;;;21.38;7.50;;;14.00;99.90;;;;;;4951808;28;20021;-60
2022/10/03 09:38:31;;;;;;;21.10;6.82;;;14.10;99.90;;;;;;4953865;28;20474;-60
2022/10/03 09:41:36;;;;;;;19.10;5.35;;;14.20;99.90;;;;;;4958364;28;20097;-60
2022/10/03 09:44:13;;;;;;;15.18;3.13;;;14.30;99.90;;;;;;4957625;28;20042;-60
2022/10/03 09:47:22;;;;;;;21.08;3.45;;;14.30;99.90;;;;;;4955279;28;20100;-60
2022/10/03 09:50:07;;;;;;;13.18;2.80;;;14.40;99.90;;;;;;4949576;28;20058;-59
2022/10/03 09:52:41;;;;;;;13.65;2.78;;;14.50;99.90;;;;;;4961767;28;20043;-60
2022/10/03 09:55:17;;;;;;;14.98;3.70;;;14.60;99.90;;;;;;4954697;28;21671;-60
2022/10/03 09:57:52;;;;;;;12.18;3.13;;;14.60;99.90;;;;;;4954866;28;20041;-60
2022/10/03 10:00:35;;;;;;;12.48;2.55;;;14.70;99.90;;;;;;4951738;28;20939;-60
2022/10/03 10:03:39;;;;;;;14.90;2.90;;;14.80;99.90;;;;;;4956801;28;20504;-60
2022/10/03 10:06:49;;;;;;;8.05;2.47;;;14.70;99.90;;;;;;4962555;28;20447;-60
2022/10/03 10:09:35;;;;;;;10.00;2.13;;;14.80;99.90;;;;;;4957209;28;20046;-60
2022/10/03 10:12:21;;;;;;;7.90;1.80;;;14.90;99.90;;;;;;4960113;28;20023;-60
2022/10/03 10:15:05;;;;;;;11.15;2.22;;;15.00;99.90;;;;;;4956653;28;20038;-60
2022/10/03 10:17:54;;;;;;;8.15;1.88;;;14.90;99.90;;;;;;4955830;28;20105;-60
2022/10/03 10:20:52;;;;;;;10.45;2.28;;;14.90;99.90;;;;;;4930169;28;20395;-59
2022/10/03 10:23:27;;;;;;;15.32;2.03;;;14.90;99.90;;;;;;4958957;28;20645;-61
2022/10/03 10:26:18;;;;;;;13.40;2.13;;;15.10;99.90;;;;;;4953038;28;20030;-60
2022/10/03 10:29:18;;;;;;;11.05;1.85;;;15.30;99.90;;;;;;4954058;28;20043;-60
2022/10/03 10:32:09;;;;;;;6.60;2.05;;;15.40;99.90;;;;;;4955383;28;20035;-60
2022/10/03 10:34:50;;;;;;;14.13;2.30;;;15.60;99.90;;;;;;4925827;28;20562;-61
2022/10/03 10:37:21;;;;;;;10.95;1.63;;;15.70;99.90;;;;;;4957200;28;20035;-61
2022/10/03 10:40:25;;;;;;;12.80;1.55;;;15.60;99.90;;;;;;4958439;28;20035;-60
2022/10/03 10:43:08;;;;;;;12.48;1.63;;;15.60;99.90;;;;;;4955883;28;20118;-61
2022/10/03 10:46:05;;;;;;;6.03;1.17;;;15.70;99.90;;;;;;4956484;28;20234;-61
2022/10/03 10:49:10;;;;;;;11.00;1.55;;;15.70;99.90;;;;;;4957931;28;20042;-61
2022/10/03 10:52:01;;;;;;;8.88;2.00;;;15.60;99.90;;;;;;4949746;28;20031;-61
2022/10/03 10:55:02;;;;;;;11.55;1.63;;;15.70;99.90;;;;;;4954691;28;20027;-61
2022/10/03 10:58:12;;;;;;;10.60;1.95;;;15.80;99.90;;;;;;4957665;28;20042;-61
2022/10/03 11:01:11;;;;;;;16.00;1.75;;;15.90;99.90;;;;;;4958349;28;20464;-61
2022/10/03 11:03:56;;;;;;;12.07;1.88;;;15.90;99.90;;;;;;4948909;28;20042;-61
2022/10/03 11:07:03;;;;;;;9.60;2.03;;;16.00;99.90;;;;;;4955619;28;20669;-61
2022/10/03 11:09:59;;;;;;;8.15;1.60;;;16.10;99.90;;;;;;4893043;29;20111;-61
2022/10/03 11:12:57;;;;;;;9.52;1.60;;;16.10;99.90;;;;;;4956765;28;20495;-61
2022/10/03 11:15:56;;;;;;;7.47;1.67;;;16.10;99.90;;;;;;4949650;28;20054;-60
2022/10/03 11:18:40;;;;;;;8.10;1.65;;;16.20;99.90;;;;;;4958162;28;20101;-61
2022/10/03 11:21:24;;;;;;;10.75;2.00;;;16.30;99.90;;;;;;4956816;28;20114;-61
2022/10/03 11:24:21;;;;;;;8.02;1.38;;;16.20;99.90;;;;;;4953415;28;20031;-61
2022/10/03 11:27:11;;;;;;;11.57;1.73;;;16.10;99.90;;;;;;4951202;28;20077;-61
2022/10/03 11:29:52;;;;;;;7.35;1.40;;;16.10;99.90;;;;;;4950249;28;20047;-60
2022/10/03 11:32:20;;;;;;;6.93;1.45;;;16.10;99.90;;;;;;4954087;28;20125;-61
2022/10/03 11:35:29;;;;;;;8.70;1.80;;;16.20;99.90;;;;;;4954167;28;20061;-59
2022/10/03 11:38:10;;;;;;;8.70;1.50;;;16.30;99.90;;;;;;4968413;28;20486;-60
2022/10/03 11:40:44;;;;;;;7.40;1.23;;;16.10;99.90;;;;;;4955753;28;20053;-60
2022/10/03 11:43:42;;;;;;;6.40;1.75;;;16.20;99.90;;;;;;4954127;28;20062;-60
2022/10/03 11:46:29;;;;;;;9.55;1.77;;;16.20;99.90;;;;;;4954276;28;20135;-60
2022/10/03 11:49:33;;;;;;;7.28;1.40;;;16.30;99.90;;;;;;4955937;28;20040;-60
2022/10/03 11:52:04;;;;;;;7.22;1.30;;;16.30;99.90;;;;;;4954588;28;20475;-61
2022/10/03 11:54:45;;;;;;;6.53;1.30;;;16.40;99.90;;;;;;4954367;28;20491;-60
2022/10/03 11:57:25;;;;;;;5.75;1.05;;;16.40;99.90;;;;;;4951877;28;20047;-61
2022/10/03 12:00:04;;;;;;;9.52;1.42;;;16.30;99.90;;;;;;4954683;28;20028;-60
2022/10/03 12:02:48;;;;;;;8.73;1.40;;;16.30;99.90;;;;;;4964825;28;20065;-60
2022/10/03 12:05:33;;;;;;;5.20;1.38;;;16.30;99.90;;;;;;4958571;28;20899;-61
2022/10/03 12:11:37;;;;;;;8.68;2.40;;;16.30;99.90;;;;;;4958579;28;20537;-61
2022/10/03 12:14:08;;;;;;;9.07;1.85;;;16.40;99.90;;;;;;4951855;28;20152;-61
2022/10/03 12:16:57;;;;;;;5.70;1.27;;;16.50;99.90;;;;;;4951116;28;20495;-61
2022/10/03 12:19:29;;;;;;;6.93;1.38;;;16.60;99.90;;;;;;4953869;28;20037;-61
2022/10/03 12:22:16;;;;;;;5.28;1.20;;;16.60;99.90;;;;;;4951580;28;20467;-61
2022/10/03 12:24:44;;;;;;;9.77;1.10;;;16.60;99.90;;;;;;4948613;28;20032;-61
2022/10/03 12:27:25;;;;;;;5.47;1.10;;;16.60;99.90;;;;;;4956509;28;20023;-60
2022/10/03 12:30:02;;;;;;;5.40;1.10;;;16.50;99.90;;;;;;4950238;28;20031;-61
2022/10/03 12:32:37;;;;;;;3.28;1.02;;;16.40;99.90;;;;;;4954899;28;20143;-61
2022/10/03 12:35:40;;;;;;;4.50;1.10;;;16.30;99.90;;;;;;4950059;28;20046;-60
2022/10/03 12:38:42;;;;;;;7.40;1.08;;;16.20;99.90;;;;;;4954944;28;20953;-61
2022/10/03 12:41:45;;;;;;;7.68;1.10;;;16.30;99.90;;;;;;4952140;28;20069;-61
2022/10/03 12:44:28;;;;;;;7.70;1.25;;;16.50;99.90;;;;;;4954813;28;20105;-61
2022/10/03 12:47:40;;;;;;;5.85;1.30;;;16.60;99.90;;;;;;4952046;28;20039;-61
2022/10/03 12:50:30;;;;;;;7.07;1.40;;;16.70;99.90;;;;;;4926754;28;20507;-61
2022/10/03 12:53:18;;;;;;;3.80;1.27;;;16.80;99.90;;;;;;4920259;28;20198;-61
2022/10/03 12:56:10;;;;;;;9.15;1.10;;;16.90;99.90;;;;;;4958006;28;20038;-61
2022/10/03 12:58:54;;;;;;;4.88;1.23;;;17.00;99.90;;;;;;4958428;28;20148;-61
2022/10/03 13:01:54;;;;;;;6.78;1.13;;;17.10;99.90;;;;;;4951192;28;20035;-61
2022/10/03 13:04:52;;;;;;;4.70;1.00;;;17.10;99.90;;;;;;4960214;28;20311;-61
2022/10/03 13:07:29;;;;;;;7.70;1.73;;;17.10;99.90;;;;;;4953673;28;20031;-61
2022/10/03 13:10:07;;;;;;;10.70;1.15;;;17.10;99.90;;;;;;4954882;28;20133;-61
2022/10/03 13:12:33;;;;;;;4.32;0.85;;;17.00;99.90;;;;;;4957369;28;20039;-61
2022/10/03 13:15:40;;;;;;;3.47;1.00;;;17.00;99.90;;;;;;4951942;28;20115;-61
2022/10/03 13:18:11;;;;;;;4.07;1.10;;;17.00;99.90;;;;;;4954697;28;20058;-59
2022/10/03 13:20:42;;;;;;;6.70;1.00;;;16.90;99.90;;;;;;4954239;28;20041;-61
2022/10/03 13:23:22;;;;;;;7.60;1.50;;;16.80;99.90;;;;;;4956962;28;20478;-61
2022/10/03 13:26:14;;;;;;;4.93;1.13;;;16.70;99.90;;;;;;4950220;28;20043;-60
2022/10/03 13:29:19;;;;;;;3.42;1.15;;;16.70;99.90;;;;;;4956562;28;20034;-61
2022/10/03 13:32:15;;;;;;;7.22;1.20;;;16.60;99.90;;;;;;4956714;28;20077;-61
2022/10/03 13:34:56;;;;;;;5.03;1.00;;;16.70;99.90;;;;;;4952072;28;20046;-61
2022/10/03 13:37:34;;;;;;;5.65;1.35;;;16.80;99.90;;;;;;4956470;28;20519;-61
2022/10/03 13:40:14;;;;;;;5.70;1.60;;;16.70;99.90;;;;;;4950026;28;20666;-61
2022/10/03 13:42:46;;;;;;;4.25;1.20;;;16.80;99.90;;;;;;4953779;28;20038;-61
2022/10/03 13:45:25;;;;;;;4.60;1.58;;;16.80;99.90;;;;;;4949218;28;20059;-61
2022/10/03 13:48:07;;;;;;;3.70;1.10;;;16.70;99.90;;;;;;4953704;28;20149;-62
2022/10/03 13:51:00;;;;;;;6.95;1.50;;;16.60;99.90;;;;;;4952939;28;20459;-61
2022/10/03 13:53:51;;;;;;;57.00;37.80;;;16.70;99.90;;;;;;4959140;28;21017;-62
2022/10/03 13:56:29;;;;;;;8.73;4.25;;;16.80;99.90;;;;;;4948015;28;20298;-61
2022/10/03 13:59:17;;;;;;;6.07;1.65;;;16.80;99.90;;;;;;4953452;28;20761;-61
2022/10/03 14:01:52;;;;;;;4.25;1.15;;;16.80;99.90;;;;;;4956670;28;20035;-61
2022/10/03 14:04:42;;;;;;;7.15;1.38;;;16.90;99.90;;;;;;4953324;28;20463;-61
2022/10/03 14:07:25;;;;;;;5.00;1.23;;;16.80;99.90;;;;;;4945893;28;20166;-61
2022/10/03 14:10:18;;;;;;;6.30;1.20;;;16.70;99.90;;;;;;4950691;28;20371;-61
2022/10/03 14:13:15;;;;;;;5.93;1.33;;;17.00;99.90;;;;;;4956056;28;20057;-61
2022/10/03 14:15:50;;;;;;;5.88;1.35;;;17.10;99.90;;;;;;4956376;28;20514;-61
2022/10/03 14:18:43;;;;;;;4.40;1.25;;;17.10;99.90;;;;;;4950581;28;20093;-61
2022/10/03 14:21:31;;;;;;;5.65;1.25;;;17.10;99.90;;;;;;4956175;28;20043;-61
2022/10/03 14:24:29;;;;;;;3.95;0.77;;;17.10;99.90;;;;;;4957090;28;20403;-61
2022/10/03 14:26:55;;;;;;;6.25;1.50;;;17.00;99.90;;;;;;4957177;28;20337;-61
2022/10/03 14:29:35;;;;;;;7.95;1.50;;;17.10;99.90;;;;;;4951626;28;20050;-61
2022/10/03 14:32:19;;;;;;;8.40;1.50;;;17.20;99.90;;;;;;4960915;28;20544;-61
2022/10/03 14:35:23;;;;;;;4.43;1.05;;;17.10;99.90;;;;;;4954297;28;20039;-61
2022/10/03 14:37:57;;;;;;;5.47;1.20;;;17.10;99.90;;;;;;4933345;28;20035;-62